Time;durP1;ratioP1;P1;durP2;ratioP2;P2;SDS_P1;SDS_P2;PMS_P1;PMS_P2;Temp;Humidity;BMP_temperature;BMP_pressure;BME280_temperature;BME280_humidity;BME280_pressure;Samples;Min_cycle;Max_cycle;Signal;HPM_P1;HPM_P2
2024/03/27 00:02:20;;;;;;;15.75;3.10;;;;;;;;;;5070786;28;20394;-36
2024/03/27 00:04:47;;;;;;;12.45;3.03;;;;;;;;;;5070412;28;20036;-36
2024/03/27 00:07:14;;;;;;;13.45;3.17;;;;;;;;;;5066084;28;20035;-38
2024/03/27 00:09:41;;;;;;;15.07;3.10;;;;;;;;;;5064500;28;20036;-38
2024/03/27 00:12:08;;;;;;;18.30;3.00;;;;;;;;;;5055956;28;20056;-35
2024/03/27 00:14:35;;;;;;;19.63;3.53;;;;;;;;;;5060349;28;20091;-37
2024/03/27 00:17:03;;;;;;;11.60;3.42;;;;;;;;;;5062892;28;20425;-38
2024/03/27 00:19:30;;;;;;;15.00;3.67;;;;;;;;;;5067787;28;20029;-37
2024/03/27 00:21:58;;;;;;;20.02;3.88;;;;;;;;;;5052396;28;20040;-36
2024/03/27 00:24:25;;;;;;;20.23;3.72;;;;;;;;;;5070608;28;20027;-36
2024/03/27 00:26:52;;;;;;;16.30;4.18;;;;;;;;;;5065207;28;20040;-38
2024/03/27 00:29:19;;;;;;;12.70;4.05;;;;;;;;;;5061343;28;20111;-38
2024/03/27 00:31:46;;;;;;;15.38;4.03;;;;;;;;;;5066634;28;20042;-37
2024/03/27 00:34:13;;;;;;;13.18;3.58;;;;;;;;;;5070432;28;20090;-38
2024/03/27 00:36:40;;;;;;;22.25;3.03;;;;;;;;;;5070710;28;20526;-36
2024/03/27 00:39:09;;;;;;;17.05;3.08;;;;;;;;;;5070290;28;20469;-38
2024/03/27 00:41:36;;;;;;;17.00;2.53;;;;;;;;;;5070621;28;20040;-38
2024/03/27 00:44:04;;;;;;;10.43;2.97;;;;;;;;;;5070770;28;20021;-38
2024/03/27 00:46:31;;;;;;;11.57;2.47;;;;;;;;;;5064596;28;20033;-38
2024/03/27 00:48:58;;;;;;;9.65;2.22;;;;;;;;;;5070370;28;20029;-37
2024/03/27 00:51:25;;;;;;;15.13;2.67;;;;;;;;;;5062122;28;20041;-37
2024/03/27 00:53:52;;;;;;;12.73;2.28;;;;;;;;;;5073020;28;20043;-38
2024/03/27 00:56:21;;;;;;;7.22;2.67;;;;;;;;;;5061430;28;20625;-37
2024/03/27 00:58:48;;;;;;;14.63;2.60;;;;;;;;;;5070697;28;20036;-38
2024/03/27 01:01:15;;;;;;;6.00;2.17;;;;;;;;;;5065761;28;20158;-38
2024/03/27 01:03:42;;;;;;;8.82;2.20;;;;;;;;;;5060663;28;20737;-38
2024/03/27 01:06:09;;;;;;;5.35;2.00;;;;;;;;;;5062889;28;20120;-38
2024/03/27 01:08:36;;;;;;;8.43;2.30;;;;;;;;;;5065168;28;20116;-36
2024/03/27 01:11:03;;;;;;;6.95;2.20;;;;;;;;;;5066213;28;20040;-38
2024/03/27 01:13:30;;;;;;;10.05;2.13;;;;;;;;;;5060336;28;20086;-40
2024/03/27 01:15:57;;;;;;;9.15;1.83;;;;;;;;;;5061613;28;20040;-38
2024/03/27 01:18:24;;;;;;;12.77;2.38;;;;;;;;;;5061741;28;20112;-38
2024/03/27 01:20:51;;;;;;;10.93;2.17;;;;;;;;;;5069828;28;20028;-38
2024/03/27 01:23:18;;;;;;;7.38;2.08;;;;;;;;;;5073666;28;20108;-38
2024/03/27 01:25:45;;;;;;;10.60;2.08;;;;;;;;;;5071491;28;20530;-37
2024/03/27 01:28:12;;;;;;;14.32;1.92;;;;;;;;;;5061152;28;20101;-36
2024/03/27 01:30:39;;;;;;;10.35;1.90;;;;;;;;;;5062914;28;20032;-42
2024/03/27 01:33:07;;;;;;;7.88;2.28;;;;;;;;;;5060188;28;20107;-36
2024/03/27 01:35:34;;;;;;;8.13;1.65;;;;;;;;;;5068677;28;20487;-36
2024/03/27 01:38:01;;;;;;;7.32;1.90;;;;;;;;;;5070633;28;20047;-36
2024/03/27 01:40:28;;;;;;;6.05;1.88;;;;;;;;;;5073065;28;20032;-38
2024/03/27 01:43:01;;;;;;;8.45;1.60;;;;;;;;;;5069982;28;20482;-36
2024/03/27 01:45:28;;;;;;;12.05;1.75;;;;;;;;;;5066143;28;20039;-39
2024/03/27 01:47:55;;;;;;;10.38;1.80;;;;;;;;;;5067337;28;20462;-39
2024/03/27 01:50:28;;;;;;;11.88;1.98;;;;;;;;;;5067095;28;20437;-36
2024/03/27 01:52:57;;;;;;;10.85;1.70;;;;;;;;;;5066578;28;20029;-36
2024/03/27 01:55:24;;;;;;;9.23;1.98;;;;;;;;;;5070412;28;20705;-36
2024/03/27 01:57:51;;;;;;;7.93;1.67;;;;;;;;;;5090975;28;20020;-38
2024/03/27 02:00:18;;;;;;;12.27;1.90;;;;;;;;;;5079506;28;20024;-36
2024/03/27 02:02:45;;;;;;;8.30;1.60;;;;;;;;;;5081151;28;20020;-41
2024/03/27 02:05:13;;;;;;;12.75;1.83;;;;;;;;;;5079853;28;20037;-36
2024/03/27 02:07:41;;;;;;;6.63;1.60;;;;;;;;;;5081610;28;20024;-37
2024/03/27 02:10:08;;;;;;;8.50;1.60;;;;;;;;;;5082022;28;20059;-38
2024/03/27 02:12:36;;;;;;;9.48;1.63;;;;;;;;;;5073559;28;20028;-39
2024/03/27 02:15:03;;;;;;;9.55;1.85;;;;;;;;;;5076264;28;20036;-41
2024/03/27 02:17:30;;;;;;;9.88;2.00;;;;;;;;;;5075983;28;20414;-38
2024/03/27 02:19:57;;;;;;;9.52;1.90;;;;;;;;;;5072387;28;20039;-38
2024/03/27 02:22:26;;;;;;;9.88;1.70;;;;;;;;;;5071730;28;20074;-38
2024/03/27 02:25:03;;;;;;;8.10;1.58;;;;;;;;;;5072000;28;20039;-39
2024/03/27 02:27:30;;;;;;;6.97;1.50;;;;;;;;;;5069711;28;20020;-38
2024/03/27 02:29:57;;;;;;;9.23;1.58;;;;;;;;;;5071978;28;20024;-38
2024/03/27 02:32:24;;;;;;;9.90;1.48;;;;;;;;;;5072015;28;20028;-39
2024/03/27 02:34:51;;;;;;;9.98;1.60;;;;;;;;;;5071791;28;20028;-38
2024/03/27 02:37:18;;;;;;;10.02;1.50;;;;;;;;;;5071977;28;20025;-38
2024/03/27 02:39:45;;;;;;;6.53;1.50;;;;;;;;;;5071712;28;20024;-40
2024/03/27 02:42:12;;;;;;;7.50;1.63;;;;;;;;;;5071898;28;20112;-38
2024/03/27 02:44:39;;;;;;;5.05;1.30;;;;;;;;;;5071760;28;20035;-38
2024/03/27 02:47:06;;;;;;;8.50;1.67;;;;;;;;;;5068999;28;20028;-40
2024/03/27 02:49:34;;;;;;;6.95;1.45;;;;;;;;;;5071550;28;20490;-38
2024/03/27 02:52:01;;;;;;;7.70;1.35;;;;;;;;;;5071682;28;20028;-38
2024/03/27 02:54:28;;;;;;;8.25;1.58;;;;;;;;;;5069049;28;20056;-40
2024/03/27 02:56:55;;;;;;;6.72;1.52;;;;;;;;;;5071361;28;20044;-38
2024/03/27 02:59:22;;;;;;;4.57;1.40;;;;;;;;;;5071215;28;20123;-39
2024/03/27 03:01:49;;;;;;;5.28;1.33;;;;;;;;;;5071552;28;20020;-37
2024/03/27 03:04:16;;;;;;;4.53;1.40;;;;;;;;;;5071375;28;20028;-39
2024/03/27 03:06:43;;;;;;;6.95;1.63;;;;;;;;;;5071415;28;20028;-38
2024/03/27 03:09:10;;;;;;;8.82;1.50;;;;;;;;;;5071304;28;20435;-42
2024/03/27 03:11:37;;;;;;;10.25;1.70;;;;;;;;;;5071925;28;20036;-44
2024/03/27 03:14:04;;;;;;;8.07;1.52;;;;;;;;;;5071806;28;20034;-40
2024/03/27 03:16:31;;;;;;;10.93;1.80;;;;;;;;;;5071252;28;20040;-40
2024/03/27 03:18:59;;;;;;;9.93;1.70;;;;;;;;;;5053697;28;20028;-40
2024/03/27 03:21:26;;;;;;;6.60;1.45;;;;;;;;;;5053884;28;20500;-38
2024/03/27 03:23:53;;;;;;;9.80;1.60;;;;;;;;;;5071665;28;20028;-39
2024/03/27 03:26:20;;;;;;;12.43;1.60;;;;;;;;;;5071742;28;20052;-38
2024/03/27 03:28:47;;;;;;;11.55;1.63;;;;;;;;;;5071603;28;20017;-38
2024/03/27 03:31:17;;;;;;;9.43;1.77;;;;;;;;;;5071748;28;20398;-39
2024/03/27 03:33:44;;;;;;;6.82;1.52;;;;;;;;;;5071446;28;20542;-39
2024/03/27 03:36:12;;;;;;;9.65;1.67;;;;;;;;;;5071621;28;20562;-38
2024/03/27 03:38:39;;;;;;;10.75;1.52;;;;;;;;;;5071329;28;20032;-37
2024/03/27 03:41:10;;;;;;;12.23;1.75;;;;;;;;;;5071573;28;20060;-38
2024/03/27 03:43:38;;;;;;;15.15;1.92;;;;;;;;;;5071416;28;20127;-38
2024/03/27 03:46:05;;;;;;;9.27;1.80;;;;;;;;;;5071456;28;20025;-37
2024/03/27 03:48:32;;;;;;;16.67;1.90;;;;;;;;;;5071341;28;20020;-38
2024/03/27 03:50:59;;;;;;;9.07;1.25;;;;;;;;;;5071343;28;20103;-38
2024/03/27 03:53:26;;;;;;;8.63;1.45;;;;;;;;;;5053359;28;20392;-37
2024/03/27 03:55:53;;;;;;;7.93;1.40;;;;;;;;;;5071187;28;20060;-38
2024/03/27 03:58:20;;;;;;;6.53;1.50;;;;;;;;;;5071248;28;20024;-37
2024/03/27 04:00:54;;;;;;;8.80;1.55;;;;;;;;;;5071312;28;20039;-40
2024/03/27 04:03:21;;;;;;;11.23;1.60;;;;;;;;;;5071179;28;20033;-40
2024/03/27 04:05:48;;;;;;;9.68;2.03;;;;;;;;;;5071332;28;20074;-39
2024/03/27 04:08:15;;;;;;;9.18;2.03;;;;;;;;;;5071190;28;20051;-39
2024/03/27 04:10:43;;;;;;;8.35;1.60;;;;;;;;;;5071075;28;20028;-39
2024/03/27 04:13:10;;;;;;;8.82;1.70;;;;;;;;;;5071254;28;20097;-39
2024/03/27 04:15:41;;;;;;;10.73;1.88;;;;;;;;;;5071062;28;20082;-39
2024/03/27 04:18:08;;;;;;;8.82;1.30;;;;;;;;;;5071116;28;20033;-40
2024/03/27 04:20:35;;;;;;;12.73;1.50;;;;;;;;;;5071132;28;20506;-39
2024/03/27 04:23:04;;;;;;;11.80;1.63;;;;;;;;;;5071091;28;20212;-39
2024/03/27 04:25:31;;;;;;;6.20;1.33;;;;;;;;;;5071108;28;20044;-39
2024/03/27 04:27:58;;;;;;;10.40;1.63;;;;;;;;;;5072169;28;20024;-39
2024/03/27 04:30:25;;;;;;;11.10;1.38;;;;;;;;;;5074803;28;20390;-39
2024/03/27 04:32:52;;;;;;;10.18;1.40;;;;;;;;;;5074898;28;20066;-39
2024/03/27 04:35:19;;;;;;;12.00;1.40;;;;;;;;;;5074711;28;20107;-39
2024/03/27 04:37:46;;;;;;;7.10;1.50;;;;;;;;;;5074403;28;20062;-37
2024/03/27 04:40:13;;;;;;;15.38;1.58;;;;;;;;;;5074717;28;20449;-37
2024/03/27 04:42:40;;;;;;;13.55;2.08;;;;;;;;;;5074695;28;21319;-38
2024/03/27 04:45:11;;;;;;;14.63;1.92;;;;;;;;;;5074995;28;20382;-37
2024/03/27 04:47:38;;;;;;;12.82;1.60;;;;;;;;;;5074640;28;20039;-38
2024/03/27 04:50:07;;;;;;;9.60;1.77;;;;;;;;;;5074520;28;20121;-39
2024/03/27 04:52:35;;;;;;;7.22;1.90;;;;;;;;;;5074474;28;20028;-38
2024/03/27 04:55:04;;;;;;;13.82;1.40;;;;;;;;;;5074356;28;20044;-37
2024/03/27 04:57:31;;;;;;;12.60;1.42;;;;;;;;;;5074300;28;20049;-37
2024/03/27 04:59:58;;;;;;;12.20;1.92;;;;;;;;;;5074416;28;20082;-38
2024/03/27 05:02:25;;;;;;;10.38;1.50;;;;;;;;;;5074419;28;20540;-37
2024/03/27 05:04:53;;;;;;;11.95;1.77;;;;;;;;;;5074379;28;20059;-38
2024/03/27 05:07:20;;;;;;;13.20;1.77;;;;;;;;;;5074099;28;20041;-37
2024/03/27 05:09:47;;;;;;;9.15;1.40;;;;;;;;;;5074474;28;20434;-39
2024/03/27 05:12:15;;;;;;;11.30;1.75;;;;;;;;;;5074200;28;20368;-37
2024/03/27 05:14:42;;;;;;;14.23;2.13;;;;;;;;;;5074119;28;20558;-37
2024/03/27 05:17:10;;;;;;;13.73;1.55;;;;;;;;;;5074058;28;20059;-37
2024/03/27 05:19:37;;;;;;;9.88;1.52;;;;;;;;;;5073980;28;20036;-37
2024/03/27 05:22:04;;;;;;;9.52;1.60;;;;;;;;;;5074066;28;20075;-38
2024/03/27 05:24:31;;;;;;;12.93;1.50;;;;;;;;;;5074056;28;20040;-38
2024/03/27 05:26:58;;;;;;;9.48;2.10;;;;;;;;;;5073874;28;20465;-37
2024/03/27 05:29:25;;;;;;;9.35;1.80;;;;;;;;;;5073529;28;20074;-39
2024/03/27 05:31:56;;;;;;;10.85;1.58;;;;;;;;;;5073847;28;20039;-39
2024/03/27 05:34:23;;;;;;;8.63;1.70;;;;;;;;;;5073689;28;20048;-37
2024/03/27 05:36:50;;;;;;;10.75;1.50;;;;;;;;;;5073832;28;20414;-37
2024/03/27 05:39:18;;;;;;;13.10;1.63;;;;;;;;;;5073078;28;20406;-37
2024/03/27 05:41:46;;;;;;;11.00;1.60;;;;;;;;;;5073526;28;20036;-37
2024/03/27 05:44:13;;;;;;;11.18;2.03;;;;;;;;;;5073468;28;20790;-38
2024/03/27 05:46:41;;;;;;;7.95;1.55;;;;;;;;;;5073647;28;20028;-37
2024/03/27 05:49:09;;;;;;;13.07;1.60;;;;;;;;;;5073373;28;20033;-39
2024/03/27 05:51:38;;;;;;;7.63;1.48;;;;;;;;;;5073520;28;20099;-39
2024/03/27 05:54:05;;;;;;;13.93;1.85;;;;;;;;;;5073350;28;20040;-39
2024/03/27 05:56:32;;;;;;;10.00;1.42;;;;;;;;;;5073232;28;20560;-39
2024/03/27 05:58:59;;;;;;;10.52;1.50;;;;;;;;;;5073243;28;20032;-38
2024/03/27 06:01:26;;;;;;;5.65;1.23;;;;;;;;;;5072260;28;20028;-39
2024/03/27 06:03:54;;;;;;;8.27;1.50;;;;;;;;;;5073212;28;20048;-39
2024/03/27 06:06:21;;;;;;;9.15;1.58;;;;;;;;;;5073032;28;20033;-39
2024/03/27 06:08:51;;;;;;;11.23;1.60;;;;;;;;;;5073024;28;20060;-39
2024/03/27 06:11:18;;;;;;;13.45;1.73;;;;;;;;;;5072940;28;20052;-39
2024/03/27 06:13:45;;;;;;;6.90;1.40;;;;;;;;;;5073020;28;20021;-39
2024/03/27 06:16:12;;;;;;;8.55;1.40;;;;;;;;;;5073011;28;20478;-38
2024/03/27 06:18:39;;;;;;;12.00;1.55;;;;;;;;;;5072742;28;20064;-39
2024/03/27 06:21:06;;;;;;;4.50;1.30;;;;;;;;;;5072907;28;20476;-39
2024/03/27 06:23:33;;;;;;;7.38;1.20;;;;;;;;;;5072855;28;20470;-39
2024/03/27 06:26:01;;;;;;;8.95;1.40;;;;;;;;;;5072820;28;20394;-39
2024/03/27 06:28:29;;;;;;;10.75;1.65;;;;;;;;;;5072507;28;20403;-39
2024/03/27 06:30:59;;;;;;;4.18;1.33;;;;;;;;;;5072673;28;20807;-39
2024/03/27 06:33:26;;;;;;;4.82;1.40;;;;;;;;;;5072655;28;20038;-39
2024/03/27 06:35:53;;;;;;;9.40;1.58;;;;;;;;;;5072465;28;20041;-38
2024/03/27 06:38:20;;;;;;;11.77;1.65;;;;;;;;;;5072442;28;20475;-39
2024/03/27 06:40:47;;;;;;;8.45;1.25;;;;;;;;;;5072556;28;20062;-38
2024/03/27 06:43:15;;;;;;;8.20;1.70;;;;;;;;;;5072356;28;20021;-38
2024/03/27 06:45:46;;;;;;;11.25;1.40;;;;;;;;;;5072485;28;20028;-38
2024/03/27 06:48:15;;;;;;;7.80;1.40;;;;;;;;;;5071961;28;20033;-38
2024/03/27 06:50:42;;;;;;;10.15;1.65;;;;;;;;;;5071359;28;20329;-38
2024/03/27 06:53:09;;;;;;;7.40;1.80;;;;;;;;;;5072331;28;20025;-38
2024/03/27 06:55:37;;;;;;;7.95;1.50;;;;;;;;;;5071935;28;20045;-38
2024/03/27 06:58:06;;;;;;;4.80;1.10;;;;;;;;;;5071794;28;20122;-38
2024/03/27 07:00:33;;;;;;;10.90;1.50;;;;;;;;;;5071963;28;20103;-38
2024/03/27 07:03:00;;;;;;;6.82;1.55;;;;;;;;;;5071994;28;20498;-37
2024/03/27 07:05:27;;;;;;;5.80;1.50;;;;;;;;;;5072057;28;20080;-39
2024/03/27 07:07:54;;;;;;;9.70;1.42;;;;;;;;;;5071829;28;20763;-39
2024/03/27 07:10:21;;;;;;;4.43;1.50;;;;;;;;;;5071960;28;20032;-40
2024/03/27 07:12:48;;;;;;;5.90;1.55;;;;;;;;;;5071953;28;20032;-39
2024/03/27 07:15:15;;;;;;;8.32;1.50;;;;;;;;;;5071854;28;20024;-39
2024/03/27 07:17:42;;;;;;;9.95;1.40;;;;;;;;;;5071769;28;20107;-39
2024/03/27 07:20:10;;;;;;;9.30;1.60;;;;;;;;;;5071687;28;20063;-39
2024/03/27 07:22:37;;;;;;;6.47;1.25;;;;;;;;;;5071772;28;20094;-39
2024/03/27 07:25:04;;;;;;;6.53;1.27;;;;;;;;;;5071766;28;20036;-40
2024/03/27 07:27:33;;;;;;;7.68;1.40;;;;;;;;;;5071583;28;20037;-40
2024/03/27 07:30:00;;;;;;;6.63;1.33;;;;;;;;;;5071603;28;20067;-42
2024/03/27 07:32:27;;;;;;;6.07;1.65;;;;;;;;;;5071550;28;20029;-39
2024/03/27 07:34:54;;;;;;;8.15;1.48;;;;;;;;;;5071530;28;20041;-39
2024/03/27 07:37:21;;;;;;;9.50;1.30;;;;;;;;;;5071614;28;20029;-42
2024/03/27 07:39:48;;;;;;;8.50;1.23;;;;;;;;;;5071550;28;20059;-39
2024/03/27 07:42:16;;;;;;;9.80;1.55;;;;;;;;;;5071565;28;20016;-39
2024/03/27 07:44:43;;;;;;;5.97;1.48;;;;;;;;;;5071532;28;20036;-39
2024/03/27 07:47:10;;;;;;;8.80;1.67;;;;;;;;;;5071399;28;20059;-39
2024/03/27 07:49:37;;;;;;;8.57;1.33;;;;;;;;;;5071520;28;20521;-39
2024/03/27 07:52:04;;;;;;;6.55;1.38;;;;;;;;;;5071366;28;20502;-39
2024/03/27 07:54:31;;;;;;;4.35;1.20;;;;;;;;;;5071410;28;20040;-39
2024/03/27 07:57:07;;;;;;;4.53;1.10;;;;;;;;;;5071008;28;20127;-39
2024/03/27 07:59:34;;;;;;;5.00;1.30;;;;;;;;;;5071411;28;20036;-39
2024/03/27 08:02:01;;;;;;;4.45;1.20;;;;;;;;;;5072706;28;20032;-39
2024/03/27 08:04:28;;;;;;;4.53;1.38;;;;;;;;;;5075520;28;20033;-41
2024/03/27 08:06:55;;;;;;;6.80;1.40;;;;;;;;;;5075247;28;20032;-39
2024/03/27 08:09:22;;;;;;;12.23;1.45;;;;;;;;;;5075439;28;20021;-39
2024/03/27 08:11:52;;;;;;;8.73;1.20;;;;;;;;;;5075358;28;20115;-39
2024/03/27 08:14:20;;;;;;;6.30;1.40;;;;;;;;;;5075221;28;20050;-39
2024/03/27 08:16:49;;;;;;;7.97;1.42;;;;;;;;;;5075027;28;20036;-39
2024/03/27 08:19:16;;;;;;;3.20;1.13;;;;;;;;;;5074818;28;20050;-38
2024/03/27 08:21:43;;;;;;;7.45;1.30;;;;;;;;;;5075220;28;20043;-37
2024/03/27 08:24:10;;;;;;;3.72;1.00;;;;;;;;;;5075067;28;20497;-39
2024/03/27 08:26:37;;;;;;;10.63;2.10;;;;;;;;;;5075024;28;20112;-39
2024/03/27 08:29:04;;;;;;;5.32;1.25;;;;;;;;;;5074862;28;20024;-40
2024/03/27 08:31:31;;;;;;;4.63;1.23;;;;;;;;;;5074990;28;20036;-39
2024/03/27 08:33:58;;;;;;;4.88;1.02;;;;;;;;;;5074817;28;20104;-39
2024/03/27 08:36:25;;;;;;;7.78;1.30;;;;;;;;;;5074910;28;20096;-40
2024/03/27 08:38:52;;;;;;;6.85;1.65;;;;;;;;;;5074767;28;20086;-39
2024/03/27 08:41:19;;;;;;;4.43;1.48;;;;;;;;;;5074695;28;20074;-38
2024/03/27 08:43:46;;;;;;;5.10;1.08;;;;;;;;;;5074758;28;20020;-39
2024/03/27 08:46:13;;;;;;;8.50;1.52;;;;;;;;;;5074687;28;20450;-39
2024/03/27 08:48:40;;;;;;;6.88;1.35;;;;;;;;;;5074541;28;20028;-39
2024/03/27 08:51:07;;;;;;;6.63;1.58;;;;;;;;;;5074525;28;20033;-39
2024/03/27 08:53:35;;;;;;;5.50;1.13;;;;;;;;;;5074542;28;20040;-39
2024/03/27 08:56:02;;;;;;;4.57;1.20;;;;;;;;;;5074285;28;20072;-37
2024/03/27 08:58:29;;;;;;;12.10;1.98;;;;;;;;;;5074296;28;20035;-39
2024/03/27 09:00:56;;;;;;;7.20;1.60;;;;;;;;;;5074168;28;20394;-38
2024/03/27 09:03:23;;;;;;;4.65;1.40;;;;;;;;;;5074109;28;20043;-39
2024/03/27 09:05:50;;;;;;;9.20;1.65;;;;;;;;;;5074363;28;20032;-39
2024/03/27 09:08:17;;;;;;;7.72;1.50;;;;;;;;;;5073938;28;20100;-39
2024/03/27 09:10:44;;;;;;;6.53;1.63;;;;;;;;;;5074260;28;20478;-39
2024/03/27 09:13:11;;;;;;;6.53;1.48;;;;;;;;;;5073330;28;20024;-39
2024/03/27 09:15:38;;;;;;;9.23;1.45;;;;;;;;;;5074026;28;20040;-39
2024/03/27 09:18:05;;;;;;;4.55;1.38;;;;;;;;;;5073955;28;20085;-39
2024/03/27 09:20:33;;;;;;;5.18;1.70;;;;;;;;;;5072874;28;20178;-37
2024/03/27 09:23:00;;;;;;;5.38;1.45;;;;;;;;;;5074013;28;20024;-37
2024/03/27 09:25:27;;;;;;;7.57;1.48;;;;;;;;;;5088446;28;20032;-39
2024/03/27 09:27:54;;;;;;;8.75;1.25;;;;;;;;;;5094062;28;20031;-38
2024/03/27 09:30:21;;;;;;;3.05;1.20;;;;;;;;;;5093538;28;20402;-38
2024/03/27 09:32:48;;;;;;;5.60;1.30;;;;;;;;;;5074141;28;20052;-37
2024/03/27 09:35:15;;;;;;;3.17;1.20;;;;;;;;;;5072992;28;20048;-39
2024/03/27 09:37:42;;;;;;;6.40;1.25;;;;;;;;;;5054965;28;20510;-38
2024/03/27 09:40:09;;;;;;;5.30;1.30;;;;;;;;;;5072913;28;20032;-39
2024/03/27 09:42:37;;;;;;;5.43;1.40;;;;;;;;;;5073423;28;20047;-37
2024/03/27 09:45:04;;;;;;;4.70;1.30;;;;;;;;;;5073003;28;20024;-39
2024/03/27 09:47:35;;;;;;;6.57;1.20;;;;;;;;;;5073341;28;20028;-41
2024/03/27 09:50:02;;;;;;;9.32;1.40;;;;;;;;;;5073258;28;20036;-39
2024/03/27 09:52:29;;;;;;;9.90;1.67;;;;;;;;;;5073511;28;20024;-39
2024/03/27 09:54:56;;;;;;;12.48;1.60;;;;;;;;;;5073374;28;20433;-39
2024/03/27 09:57:22;;;;;;;9.38;1.83;;;;;;;;;;5073101;28;20055;-39
2024/03/27 09:59:49;;;;;;;11.25;2.25;;;;;;;;;;5073250;28;20024;-40
2024/03/27 10:02:16;;;;;;;12.13;2.25;;;;;;;;;;5073151;28;20028;-39
2024/03/27 10:04:45;;;;;;;11.27;2.33;;;;;;;;;;5073302;28;20025;-39
2024/03/27 10:07:11;;;;;;;6.95;2.08;;;;;;;;;;5073156;28;20123;-39
2024/03/27 10:09:38;;;;;;;8.27;2.00;;;;;;;;;;5073183;28;20044;-39
2024/03/27 10:12:05;;;;;;;11.90;2.45;;;;;;;;;;5073148;28;20028;-39
2024/03/27 10:14:32;;;;;;;8.90;2.10;;;;;;;;;;5072980;28;20037;-40
2024/03/27 10:17:00;;;;;;;7.05;2.00;;;;;;;;;;5072863;28;20436;-39
2024/03/27 10:19:26;;;;;;;9.02;2.13;;;;;;;;;;5072976;28;20090;-39
2024/03/27 10:21:55;;;;;;;10.77;1.95;;;;;;;;;;5072979;28;20129;-39
2024/03/27 10:24:22;;;;;;;10.05;2.30;;;;;;;;;;5072673;28;20551;-39
2024/03/27 10:26:51;;;;;;;8.48;2.42;;;;;;;;;;5072719;28;20446;-39
2024/03/27 10:29:18;;;;;;;11.93;2.45;;;;;;;;;;5072769;28;20021;-39
2024/03/27 10:31:45;;;;;;;8.05;2.67;;;;;;;;;;5072780;28;20044;-39
2024/03/27 10:34:12;;;;;;;11.48;2.50;;;;;;;;;;5072549;28;20471;-39
2024/03/27 10:36:41;;;;;;;8.27;1.98;;;;;;;;;;5072366;28;20108;-39
2024/03/27 10:39:11;;;;;;;7.00;2.17;;;;;;;;;;5072493;28;20029;-40
2024/03/27 10:41:38;;;;;;;13.95;2.53;;;;;;;;;;5072559;28;20035;-39
2024/03/27 10:44:05;;;;;;;8.52;2.28;;;;;;;;;;5072508;28;20017;-40
2024/03/27 10:46:33;;;;;;;10.73;2.30;;;;;;;;;;5072054;28;20040;-36
2024/03/27 10:49:01;;;;;;;12.23;2.33;;;;;;;;;;5067514;28;20036;-37
2024/03/27 10:51:29;;;;;;;15.18;2.72;;;;;;;;;;5071353;28;20028;-38
2024/03/27 10:53:56;;;;;;;19.63;2.67;;;;;;;;;;5062304;28;20060;-37
2024/03/27 10:56:23;;;;;;;21.25;3.13;;;;;;;;;;5069876;28;20065;-39
2024/03/27 10:58:51;;;;;;;15.88;2.60;;;;;;;;;;5068358;28;20060;-38
2024/03/27 11:01:20;;;;;;;19.25;3.05;;;;;;;;;;5069463;28;20055;-36
2024/03/27 11:03:51;;;;;;;18.35;2.65;;;;;;;;;;5070995;28;20040;-35
2024/03/27 11:06:19;;;;;;;20.92;2.50;;;;;;;;;;5070902;28;20035;-36
2024/03/27 11:08:47;;;;;;;13.20;2.50;;;;;;;;;;5067776;28;20059;-42
2024/03/27 11:11:19;;;;;;;14.95;2.10;;;;;;;;;;5067004;28;20028;-35
2024/03/27 11:13:46;;;;;;;12.90;2.63;;;;;;;;;;5069920;28;20119;-37
2024/03/27 11:16:14;;;;;;;16.30;2.38;;;;;;;;;;5070010;28;20790;-37
2024/03/27 11:18:45;;;;;;;22.10;2.85;;;;;;;;;;5070445;28;20116;-34
2024/03/27 11:21:13;;;;;;;10.38;2.45;;;;;;;;;;5059369;28;20033;-35
2024/03/27 11:23:43;;;;;;;10.95;2.25;;;;;;;;;;5070228;28;20017;-35
2024/03/27 11:26:10;;;;;;;12.25;2.40;;;;;;;;;;5071361;28;20017;-35
2024/03/27 11:28:37;;;;;;;11.32;2.47;;;;;;;;;;5053071;28;20028;-41
2024/03/27 11:31:04;;;;;;;19.00;2.75;;;;;;;;;;5071046;28;20036;-37
2024/03/27 11:33:31;;;;;;;14.82;2.92;;;;;;;;;;5064746;28;20024;-37
2024/03/27 11:35:59;;;;;;;16.30;2.33;;;;;;;;;;5070377;28;20095;-34
2024/03/27 11:38:26;;;;;;;10.07;2.17;;;;;;;;;;5070413;28;20073;-36
2024/03/27 11:40:53;;;;;;;17.45;2.53;;;;;;;;;;5070574;28;20020;-36
2024/03/27 11:43:20;;;;;;;18.38;2.70;;;;;;;;;;5066659;28;20035;-37
2024/03/27 11:45:51;;;;;;;14.63;2.75;;;;;;;;;;5065868;28;20024;-34
2024/03/27 11:48:19;;;;;;;13.57;2.40;;;;;;;;;;5070495;28;20021;-34
2024/03/27 11:50:46;;;;;;;18.05;2.70;;;;;;;;;;5069900;28;20024;-34
2024/03/27 11:53:14;;;;;;;13.90;2.15;;;;;;;;;;5068877;28;20032;-37
2024/03/27 11:55:43;;;;;;;13.52;2.70;;;;;;;;;;5066688;28;20036;-34
2024/03/27 11:58:10;;;;;;;7.25;1.90;;;;;;;;;;5067060;28;20446;-38
2024/03/27 12:00:37;;;;;;;9.82;1.83;;;;;;;;;;5070426;28;20028;-37
2024/03/27 12:03:04;;;;;;;19.35;3.25;;;;;;;;;;5069940;28;20031;-35
2024/03/27 12:05:32;;;;;;;12.38;2.70;;;;;;;;;;5068704;28;20029;-36
2024/03/27 12:07:59;;;;;;;14.35;2.67;;;;;;;;;;5068347;28;20105;-35
2024/03/27 12:10:26;;;;;;;16.98;2.97;;;;;;;;;;5065435;28;20067;-36
2024/03/27 12:12:53;;;;;;;11.95;2.40;;;;;;;;;;5070711;28;20032;-37
2024/03/27 12:15:20;;;;;;;18.23;2.92;;;;;;;;;;5068660;28;20044;-36
2024/03/27 12:17:47;;;;;;;10.63;2.40;;;;;;;;;;5070010;28;20029;-37
2024/03/27 12:20:14;;;;;;;12.35;2.20;;;;;;;;;;5067415;28;20104;-37
2024/03/27 12:22:41;;;;;;;14.18;2.70;;;;;;;;;;5067474;28;20050;-36
2024/03/27 12:25:08;;;;;;;14.70;2.33;;;;;;;;;;5070670;28;20035;-37
2024/03/27 12:27:37;;;;;;;17.17;2.65;;;;;;;;;;5070679;28;20098;-35
2024/03/27 12:30:04;;;;;;;10.57;2.33;;;;;;;;;;5069993;28;20032;-35
2024/03/27 12:32:31;;;;;;;19.27;2.53;;;;;;;;;;5070425;28;20028;-35
2024/03/27 12:34:59;;;;;;;16.52;2.78;;;;;;;;;;5067714;28;20131;-36
2024/03/27 12:37:26;;;;;;;14.13;2.47;;;;;;;;;;5070333;28;20028;-37
2024/03/27 12:39:54;;;;;;;10.82;2.38;;;;;;;;;;5070386;28;20031;-37
2024/03/27 12:42:21;;;;;;;10.63;2.58;;;;;;;;;;5070752;28;20066;-38
2024/03/27 12:44:48;;;;;;;9.80;2.30;;;;;;;;;;5070853;28;20548;-37
2024/03/27 12:47:15;;;;;;;12.05;2.67;;;;;;;;;;5070841;28;20032;-37
2024/03/27 12:49:42;;;;;;;12.68;2.42;;;;;;;;;;5073121;28;20483;-37
2024/03/27 12:52:09;;;;;;;10.15;2.95;;;;;;;;;;5074690;28;20020;-37
2024/03/27 12:54:36;;;;;;;13.38;2.22;;;;;;;;;;5074438;28;20036;-37
2024/03/27 12:57:03;;;;;;;11.30;2.67;;;;;;;;;;5074126;28;20482;-38
2024/03/27 12:59:30;;;;;;;23.00;3.03;;;;;;;;;;5074499;28;20028;-37
2024/03/27 13:01:57;;;;;;;16.70;3.28;;;;;;;;;;5074427;28;20501;-37
2024/03/27 13:04:24;;;;;;;20.45;2.90;;;;;;;;;;5074316;28;20100;-37
2024/03/27 13:06:51;;;;;;;13.45;2.72;;;;;;;;;;5074359;28;20072;-38
2024/03/27 13:09:18;;;;;;;14.65;2.85;;;;;;;;;;5074310;28;20043;-37
2024/03/27 13:11:45;;;;;;;15.80;3.17;;;;;;;;;;5074326;28;20039;-37
2024/03/27 13:14:14;;;;;;;16.33;2.85;;;;;;;;;;5074007;28;20036;-37
2024/03/27 13:16:41;;;;;;;12.23;2.97;;;;;;;;;;5074079;28;20502;-37
2024/03/27 13:19:08;;;;;;;15.05;2.35;;;;;;;;;;5074027;28;20024;-37
2024/03/27 13:21:37;;;;;;;13.93;2.83;;;;;;;;;;5056416;28;20047;-37
2024/03/27 13:24:04;;;;;;;15.13;3.15;;;;;;;;;;5073986;28;20482;-35
2024/03/27 13:26:31;;;;;;;12.05;2.65;;;;;;;;;;5073950;28;20035;-35
2024/03/27 13:28:58;;;;;;;14.63;2.70;;;;;;;;;;5074132;28;20051;-36
2024/03/27 13:31:25;;;;;;;13.20;3.20;;;;;;;;;;5073863;28;20372;-36
2024/03/27 13:33:52;;;;;;;12.30;2.58;;;;;;;;;;5073811;28;20036;-37
2024/03/27 13:36:19;;;;;;;15.18;2.88;;;;;;;;;;5055766;28;20032;-36
2024/03/27 13:38:46;;;;;;;12.80;2.65;;;;;;;;;;5073739;28;20494;-35
2024/03/27 13:41:13;;;;;;;13.02;2.42;;;;;;;;;;5073785;28;20044;-36
2024/03/27 13:43:40;;;;;;;15.63;2.50;;;;;;;;;;5073597;28;20039;-37
2024/03/27 13:46:07;;;;;;;11.82;2.55;;;;;;;;;;5073650;28;20032;-36
2024/03/27 13:48:34;;;;;;;14.75;2.50;;;;;;;;;;5073567;28;20025;-35
2024/03/27 13:51:01;;;;;;;9.02;2.33;;;;;;;;;;5073593;28;20039;-36
2024/03/27 13:53:28;;;;;;;16.27;2.80;;;;;;;;;;5073428;28;20455;-36
2024/03/27 13:55:55;;;;;;;11.40;2.70;;;;;;;;;;5073237;28;20044;-35
2024/03/27 13:58:22;;;;;;;10.32;2.20;;;;;;;;;;5055249;28;20032;-35
2024/03/27 14:00:49;;;;;;;12.43;2.60;;;;;;;;;;5072995;28;20054;-35
2024/03/27 14:03:16;;;;;;;13.20;2.35;;;;;;;;;;5073280;28;20439;-35
2024/03/27 14:05:44;;;;;;;10.82;2.40;;;;;;;;;;5073334;28;20051;-35
2024/03/27 14:08:11;;;;;;;12.65;2.25;;;;;;;;;;5072991;28;20107;-35
2024/03/27 14:10:39;;;;;;;11.70;2.42;;;;;;;;;;5073175;28;20032;-36
2024/03/27 14:13:07;;;;;;;14.80;2.83;;;;;;;;;;5073051;28;20119;-35
2024/03/27 14:15:34;;;;;;;10.85;2.35;;;;;;;;;;5055034;28;20570;-36
2024/03/27 14:18:01;;;;;;;11.48;2.15;;;;;;;;;;5072807;28;20560;-35
2024/03/27 14:20:28;;;;;;;8.95;2.35;;;;;;;;;;5072911;28;20036;-35
2024/03/27 14:22:55;;;;;;;12.07;2.83;;;;;;;;;;5072937;28;20035;-35
2024/03/27 14:25:22;;;;;;;9.65;2.70;;;;;;;;;;5072832;28;20367;-36
2024/03/27 14:27:49;;;;;;;9.85;2.85;;;;;;;;;;5072763;28;20098;-35
2024/03/27 14:30:16;;;;;;;11.25;2.58;;;;;;;;;;5072659;28;20398;-35
2024/03/27 14:32:43;;;;;;;11.98;2.30;;;;;;;;;;5072668;28;20028;-37
2024/03/27 14:35:10;;;;;;;11.65;2.15;;;;;;;;;;5072559;28;20036;-38
2024/03/27 14:37:37;;;;;;;9.35;2.15;;;;;;;;;;5072476;28;20478;-37